Time,TemperatureF,DewpointF,PressureIn,WindDirection,WindDirectionDegrees,WindSpeedMPH,WindSpeedGustMPH,Humidity,HourlyPrecipIn,Conditions,Clouds,dailyrainin,SoftwareType,DateUTC
2013-08-15 00:00:00,51.8,49.5,30.14,ENE,76,0.0,0.0,92,0.00,,,0.00,Wunderground v.1.15,2013-08-15 05:00:00,
2013-08-15 00:06:00,51.7,49.5,30.15,ENE,76,0.0,0.0,92,0.00,,,0.00,Wunderground v.1.15,2013-08-15 05:06:00,
2013-08-15 00:12:00,51.7,49.5,30.15,ENE,76,0.0,0.0,92,0.00,,,0.00,Wunderground v.1.15,2013-08-15 05:12:00,
2013-08-15 00:18:00,51.5,49.3,30.15,ENE,76,0.0,0.0,92,0.00,,,0.00,Wunderground v.1.15,2013-08-15 05:18:00,
2013-08-15 00:24:00,51.6,49.6,30.14,ENE,76,0.0,0.0,93,0.00,,,0.00,Wunderground v.1.15,2013-08-15 05:24:00,
2013-08-15 00:30:00,51.5,49.3,30.14,ENE,76,0.0,0.0,92,0.00,,,0.00,Wunderground v.1.15,2013-08-15 05:30:00,
2013-08-15 00:36:00,51.4,49.2,30.14,ENE,76,0.0,0.0,92,0.00,,,0.00,Wunderground v.1.15,2013-08-15 05:36:00,
2013-08-15 00:42:00,51.1,48.9,30.14,ENE,76,0.0,0.0,92,0.00,,,0.00,Wunderground v.1.15,2013-08-15 05:42:00,
2013-08-15 00:48:00,51.2,49.2,30.14,ENE,76,0.0,0.0,93,0.00,,,0.00,Wunderground v.1.15,2013-08-15 05:48:00,
2013-08-15 00:54:00,51.4,49.4,30.15,ENE,76,0.0,0.0,93,0.00,,,0.00,Wunderground v.1.15,2013-08-15 05:54:00,
2013-08-15 01:00:00,51.7,49.7,30.14,ENE,76,0.0,0.0,93,0.00,,,0.00,Wunderground v.1.15,2013-08-15 06:00:00,
2013-08-15 01:06:00,51.7,49.7,30.14,ENE,76,0.0,0.0,93,0.00,,,0.00,Wunderground v.1.15,2013-08-15 06:06:00,
2013-08-15 01:12:00,51.5,49.3,30.14,ENE,76,0.0,0.0,92,0.00,,,0.00,Wunderground v.1.15,2013-08-15 06:12:00,
2013-08-15 01:18:00,51.4,49.2,30.14,ENE,76,0.0,0.0,92,0.00,,,0.00,Wunderground v.1.15,2013-08-15 06:18:00,
2013-08-15 01:24:00,51.4,49.4,30.14,ENE,76,0.0,0.0,93,0.00,,,0.00,Wunderground v.1.15,2013-08-15 06:24:00,
2013-08-15 01:30:00,51.4,49.4,30.14,ENE,76,0.0,0.0,93,0.00,,,0.00,Wunderground v.1.15,2013-08-15 06:30:00,
2013-08-15 01:36:00,51.1,48.9,30.14,ENE,76,0.0,0.0,92,0.00,,,0.00,Wunderground v.1.15,2013-08-15 06:36:00,
2013-08-15 01:42:00,50.8,48.6,30.14,ENE,76,0.0,0.0,92,0.00,,,0.00,Wunderground v.1.15,2013-08-15 06:42:00,
2013-08-15 01:48:00,50.7,48.5,30.13,ENE,76,0.0,0.0,92,0.00,,,0.00,Wunderground v.1.15,2013-08-15 06:48:00,
2013-08-15 01:54:00,50.6,48.4,30.14,ENE,76,0.0,0.0,92,0.00,,,0.00,Wunderground v.1.15,2013-08-15 06:54:00,
2013-08-15 02:00:00,50.5,48.6,30.14,ENE,76,0.0,0.0,93,0.00,,,0.00,Wunderground v.1.15,2013-08-15 07:00:00,
2013-08-15 02:06:00,50.4,48.2,30.14,ENE,76,0.0,0.0,92,0.00,,,0.00,Wunderground v.1.15,2013-08-15 07:06:00,
2013-08-15 02:12:00,50.2,48.3,30.14,ENE,76,0.0,0.0,93,0.00,,,0.00,Wunderground v.1.15,2013-08-15 07:12:00,
2013-08-15 02:18:00,50.3,48.4,30.13,ENE,77,0.0,0.0,93,0.00,,,0.00,Wunderground v.1.15,2013-08-15 07:18:00,
2013-08-15 02:24:00,49.8,47.6,30.13,ENE,76,0.0,0.0,92,0.00,,,0.00,Wunderground v.1.15,2013-08-15 07:24:00,
2013-08-15 02:30:00,49.5,47.3,30.13,ENE,76,0.0,0.0,92,0.00,,,0.00,Wunderground v.1.15,2013-08-15 07:30:00,
2013-08-15 02:36:00,49.3,47.4,30.13,ENE,76,0.0,0.0,93,0.00,,,0.00,Wunderground v.1.15,2013-08-15 07:36:00,
2013-08-15 02:42:00,49.2,47.3,30.13,ENE,76,0.0,0.0,93,0.00,,,0.00,Wunderground v.1.15,2013-08-15 07:42:00,
2013-08-15 02:48:00,49.3,47.4,30.13,ENE,76,0.0,0.0,93,0.00,,,0.00,Wunderground v.1.15,2013-08-15 07:48:00,
2013-08-15 02:54:00,49.3,47.4,30.13,ENE,76,0.0,0.0,93,0.00,,,0.00,Wunderground v.1.15,2013-08-15 07:54:00,
2013-08-15 03:00:00,49.1,47.2,30.13,ENE,76,0.0,0.0,93,0.00,,,0.00,Wunderground v.1.15,2013-08-15 08:00:00,
2013-08-15 03:05:00,48.9,47.0,30.13,ENE,76,0.0,0.0,93,0.00,,,0.00,Wunderground v.1.15,2013-08-15 08:05:00,
2013-08-15 03:12:00,48.7,46.8,30.14,ENE,76,0.0,0.0,93,0.00,,,0.00,Wunderground v.1.15,2013-08-15 08:12:00,
2013-08-15 03:18:00,48.5,46.6,30.14,ENE,76,0.0,0.0,93,0.00,,,0.00,Wunderground v.1.15,2013-08-15 08:18:00,
2013-08-15 03:24:00,48.3,46.4,30.14,ENE,76,0.0,0.0,93,0.00,,,0.00,Wunderground v.1.15,2013-08-15 08:24:00,
2013-08-15 03:30:00,48.2,46.3,30.14,ENE,76,0.0,0.0,93,0.00,,,0.00,Wunderground v.1.15,2013-08-15 08:30:00,
2013-08-15 03:36:00,48.0,46.1,30.14,ENE,76,0.0,0.0,93,0.00,,,0.00,Wunderground v.1.15,2013-08-15 08:36:00,
2013-08-15 03:42:00,47.8,45.9,30.14,ENE,76,0.0,0.0,93,0.00,,,0.00,Wunderground v.1.15,2013-08-15 08:42:00,
2013-08-15 03:48:00,47.8,46.2,30.14,ENE,76,0.0,0.0,94,0.00,,,0.00,Wunderground v.1.15,2013-08-15 08:48:00,
2013-08-15 03:54:00,47.9,46.3,30.14,ENE,76,0.0,0.0,94,0.00,,,0.00,Wunderground v.1.15,2013-08-15 08:54:00,
2013-08-15 04:00:00,47.9,46.3,30.14,ENE,76,0.0,0.0,94,0.00,,,0.00,Wunderground v.1.15,2013-08-15 09:00:00,
2013-08-15 04:06:00,47.8,46.2,30.14,ENE,76,0.0,0.0,94,0.00,,,0.00,Wunderground v.1.15,2013-08-15 09:06:00,
2013-08-15 04:12:00,47.8,46.2,30.14,ENE,76,0.0,0.0,94,0.00,,,0.00,Wunderground v.1.15,2013-08-15 09:12:00,
2013-08-15 04:18:00,47.7,46.1,30.14,ENE,76,0.0,0.0,94,0.00,,,0.00,Wunderground v.1.15,2013-08-15 09:18:00,
2013-08-15 04:24:00,47.6,46.0,30.14,ENE,76,0.0,0.0,94,0.00,,,0.00,Wunderground v.1.15,2013-08-15 09:24:00,
2013-08-15 04:30:00,47.7,46.1,30.14,ENE,76,0.0,0.0,94,0.00,,,0.00,Wunderground v.1.15,2013-08-15 09:30:00,
2013-08-15 04:36:00,47.9,46.3,30.14,ENE,76,0.0,0.0,94,0.00,,,0.00,Wunderground v.1.15,2013-08-15 09:36:00,
2013-08-15 04:42:00,47.9,46.3,30.14,ENE,76,0.0,0.0,94,0.00,,,0.00,Wunderground v.1.15,2013-08-15 09:42:00,
2013-08-15 04:48:00,47.9,46.3,30.14,ENE,76,0.0,0.0,94,0.00,,,0.00,Wunderground v.1.15,2013-08-15 09:48:00,
2013-08-15 04:54:00,47.7,46.1,30.14,ENE,76,0.0,0.0,94,0.00,,,0.00,Wunderground v.1.15,2013-08-15 09:54:00,
2013-08-15 05:00:00,47.6,46.0,30.14,ENE,77,0.0,0.0,94,0.00,,,0.00,Wunderground v.1.15,2013-08-15 10:00:00,
2013-08-15 05:06:00,47.6,46.0,30.14,ENE,76,0.0,0.0,94,0.00,,,0.00,Wunderground v.1.15,2013-08-15 10:06:00,
2013-08-15 05:12:00,47.7,46.1,30.14,ENE,76,0.0,0.0,94,0.00,,,0.00,Wunderground v.1.15,2013-08-15 10:12:00,
2013-08-15 05:18:00,47.9,46.5,30.14,ENE,76,0.0,0.0,95,0.00,,,0.00,Wunderground v.1.15,2013-08-15 10:18:00,
2013-08-15 05:24:00,48.1,46.7,30.14,ENE,76,0.0,0.0,95,0.00,,,0.00,Wunderground v.1.15,2013-08-15 10:24:00,
2013-08-15 05:30:00,48.2,46.8,30.14,ENE,76,0.0,0.0,95,0.00,,,0.00,Wunderground v.1.15,2013-08-15 10:30:00,
2013-08-15 05:36:00,48.2,46.8,30.14,ENE,76,0.0,0.0,95,0.00,,,0.00,Wunderground v.1.15,2013-08-15 10:36:00,
2013-08-15 05:42:00,48.2,46.8,30.14,ENE,76,0.0,0.0,95,0.00,,,0.00,Wunderground v.1.15,2013-08-15 10:42:00,
2013-08-15 05:48:00,48.3,46.9,30.14,ENE,77,0.0,0.0,95,0.00,,,0.00,Wunderground v.1.15,2013-08-15 10:48:00,
2013-08-15 05:54:00,48.2,46.8,30.14,ENE,76,0.0,0.0,95,0.00,,,0.00,Wunderground v.1.15,2013-08-15 10:54:00,
2013-08-15 06:02:00,48.1,46.7,30.14,ENE,76,0.0,0.0,95,0.00,,,0.00,Wunderground v.1.15,2013-08-15 11:02:00,
2013-08-15 06:08:00,48.1,46.7,30.14,ENE,76,0.0,0.0,95,0.00,,,0.00,Wunderground v.1.15,2013-08-15 11:08:00,
2013-08-15 06:14:00,48.2,46.8,30.14,ENE,77,0.0,0.0,95,0.00,,,0.00,Wunderground v.1.15,2013-08-15 11:14:00,
2013-08-15 06:20:00,48.5,47.1,30.14,ENE,76,0.0,0.0,95,0.00,,,0.00,Wunderground v.1.15,2013-08-15 11:20:00,
2013-08-15 06:26:00,48.7,47.3,30.14,ENE,77,0.0,0.0,95,0.00,,,0.00,Wunderground v.1.15,2013-08-15 11:26:00,
2013-08-15 06:32:00,49.0,47.6,30.14,ENE,76,0.0,0.0,95,0.00,,,0.00,Wunderground v.1.15,2013-08-15 11:32:00,
2013-08-15 06:38:00,49.3,48.2,30.15,ENE,76,0.0,0.0,96,0.00,,,0.00,Wunderground v.1.15,2013-08-15 11:38:00,
2013-08-15 06:44:00,49.6,48.2,30.15,ENE,76,0.0,0.0,95,0.00,,,0.00,Wunderground v.1.15,2013-08-15 11:44:00,
2013-08-15 06:50:00,49.9,48.8,30.15,ENE,76,0.0,0.0,96,0.00,,,0.00,Wunderground v.1.15,2013-08-15 11:50:00,
2013-08-15 06:56:00,50.2,49.1,30.15,ENE,77,0.0,0.0,96,0.00,,,0.00,Wunderground v.1.15,2013-08-15 11:56:00,
2013-08-15 07:02:00,50.8,49.7,30.15,ENE,77,0.0,0.0,96,0.00,,,0.00,Wunderground v.1.15,2013-08-15 12:02:00,
2013-08-15 07:08:00,51.3,50.2,30.15,ENE,76,0.0,0.0,96,0.00,,,0.00,Wunderground v.1.15,2013-08-15 12:08:00,
2013-08-15 07:14:00,52.0,50.9,30.15,ENE,76,0.0,0.0,96,0.00,,,0.00,Wunderground v.1.15,2013-08-15 12:14:00,
2013-08-15 07:20:00,52.5,51.4,30.15,ENE,77,0.0,0.0,96,0.00,,,0.00,Wunderground v.1.15,2013-08-15 12:20:00,
2013-08-15 07:26:00,53.0,51.9,30.15,ENE,77,0.0,0.0,96,0.00,,,0.00,Wunderground v.1.15,2013-08-15 12:26:00,
2013-08-15 07:32:00,53.5,52.4,30.15,ENE,77,0.0,0.0,96,0.00,,,0.00,Wunderground v.1.15,2013-08-15 12:32:00,
2013-08-15 07:38:00,54.0,52.9,30.15,ENE,76,0.0,0.0,96,0.00,,,0.00,Wunderground v.1.15,2013-08-15 12:38:00,
2013-08-15 07:44:00,54.4,53.3,30.15,ENE,77,0.0,0.0,96,0.00,,,0.00,Wunderground v.1.15,2013-08-15 12:44:00,
2013-08-15 07:50:00,54.9,53.8,30.15,ENE,77,0.0,1.0,96,0.00,,,0.00,Wunderground v.1.15,2013-08-15 12:50:00,
2013-08-15 07:56:00,55.6,54.5,30.15,ENE,77,0.0,1.0,96,0.00,,,0.00,Wunderground v.1.15,2013-08-15 12:56:00,
2013-08-15 08:02:00,56.2,55.1,30.15,ENE,77,0.0,0.0,96,0.00,,,0.00,Wunderground v.1.15,2013-08-15 13:02:00,
2013-08-15 08:08:00,57.2,56.1,30.15,ENE,77,0.0,0.0,96,0.00,,,0.00,Wunderground v.1.15,2013-08-15 13:08:00,
2013-08-15 08:14:00,57.9,56.5,30.15,ENE,77,0.0,1.0,95,0.00,,,0.00,Wunderground v.1.15,2013-08-15 13:14:00,
2013-08-15 08:20:00,58.5,55.9,30.15,ENE,77,1.0,1.0,91,0.00,,,0.00,Wunderground v.1.15,2013-08-15 13:20:00,
2013-08-15 08:26:00,59.5,56.3,30.16,ENE,77,1.0,2.0,89,0.00,,,0.00,Wunderground v.1.15,2013-08-15 13:26:00,
2013-08-15 08:32:00,60.4,56.8,30.16,ENE,77,1.0,1.0,88,0.00,,,0.00,Wunderground v.1.15,2013-08-15 13:32:00,
2013-08-15 08:38:00,61.4,57.2,30.16,WSW,251,2.0,4.0,86,0.00,,,0.00,Wunderground v.1.15,2013-08-15 13:38:00,
2013-08-15 08:44:00,62.5,57.3,30.16,SW,228,2.0,3.0,83,0.00,,,0.00,Wunderground v.1.15,2013-08-15 13:44:00,
2013-08-15 08:50:00,63.3,58.0,30.16,SW,223,2.0,2.0,83,0.00,,,0.00,Wunderground v.1.15,2013-08-15 13:50:00,
2013-08-15 08:56:00,64.0,58.1,30.16,SSW,209,2.0,2.0,81,0.00,,,0.00,Wunderground v.1.15,2013-08-15 13:56:00,
2013-08-15 09:02:00,64.5,58.2,30.16,SW,222,2.0,3.0,80,0.00,,,0.00,Wunderground v.1.15,2013-08-15 14:02:00,
2013-08-15 09:08:00,64.7,58.0,30.16,West,260,3.0,4.0,79,0.00,,,0.00,Wunderground v.1.15,2013-08-15 14:08:00,
2013-08-15 09:16:00,64.7,58.4,30.16,WSW,245,3.0,4.0,80,0.00,,,0.00,Wunderground v.1.15,2013-08-15 14:16:00,
2013-08-15 09:22:00,64.6,57.9,30.16,SW,225,3.0,3.0,79,0.00,,,0.00,Wunderground v.1.15,2013-08-15 14:22:00,
2013-08-15 09:28:00,64.8,57.8,30.16,WSW,253,3.0,6.0,78,0.00,,,0.00,Wunderground v.1.15,2013-08-15 14:28:00,
2013-08-15 09:34:00,65.1,58.1,30.16,West,261,3.0,3.0,78,0.00,,,0.00,Wunderground v.1.15,2013-08-15 14:34:00,
2013-08-15 09:40:00,65.2,57.8,30.16,WSW,251,3.0,3.0,77,0.00,,,0.00,Wunderground v.1.15,2013-08-15 14:40:00,
2013-08-15 09:46:00,65.8,58.7,30.16,SW,225,3.0,3.0,78,0.00,,,0.00,Wunderground v.1.15,2013-08-15 14:46:00,
2013-08-15 09:52:00,66.8,58.2,30.16,West,278,3.0,6.0,74,0.00,,,0.00,Wunderground v.1.15,2013-08-15 14:52:00,
2013-08-15 09:58:00,67.5,58.5,30.16,West,268,4.0,6.0,73,0.00,,,0.00,Wunderground v.1.15,2013-08-15 14:58:00,
2013-08-15 10:04:00,67.9,58.5,30.16,West,267,3.0,6.0,72,0.00,,,0.00,Wunderground v.1.15,2013-08-15 15:04:00,
2013-08-15 10:10:00,68.4,59.0,30.16,West,272,4.0,4.0,72,0.00,,,0.00,Wunderground v.1.15,2013-08-15 15:10:00,
2013-08-15 10:18:00,68.8,58.6,30.15,WSW,254,4.0,5.0,70,0.00,,,0.00,Wunderground v.1.15,2013-08-15 15:18:00,
2013-08-15 10:24:00,68.8,57.0,30.15,WNW,288,4.0,8.0,66,0.00,,,0.00,Wunderground v.1.15,2013-08-15 15:24:00,
2013-08-15 10:30:00,68.6,57.6,30.15,WNW,285,5.0,5.0,68,0.00,,,0.00,Wunderground v.1.15,2013-08-15 15:30:00,
2013-08-15 10:36:00,68.7,57.7,30.15,West,281,4.0,5.0,68,0.00,,,0.00,Wunderground v.1.15,2013-08-15 15:36:00,
2013-08-15 10:42:00,69.0,59.2,30.15,West,277,3.0,3.0,71,0.00,,,0.00,Wunderground v.1.15,2013-08-15 15:42:00,
2013-08-15 10:48:00,69.5,59.3,30.15,West,273,2.0,3.0,70,0.00,,,0.00,Wunderground v.1.15,2013-08-15 15:48:00,
2013-08-15 10:54:00,69.7,58.7,30.15,West,269,2.0,5.0,68,0.00,,,0.00,Wunderground v.1.15,2013-08-15 15:54:00,
2013-08-15 11:02:00,69.7,59.1,30.15,WSW,240,3.0,3.0,69,0.00,,,0.00,Wunderground v.1.15,2013-08-15 16:02:00,
2013-08-15 11:08:00,69.6,58.2,30.15,WSW,252,2.0,4.0,67,0.00,,,0.00,Wunderground v.1.15,2013-08-15 16:08:00,
2013-08-15 11:14:00,69.6,59.0,30.15,WSW,255,2.0,3.0,69,0.00,,,0.00,Wunderground v.1.15,2013-08-15 16:14:00,
2013-08-15 11:22:00,70.0,58.5,30.15,WNW,291,2.0,3.0,67,0.00,,,0.00,Wunderground v.1.15,2013-08-15 16:22:00,
2013-08-15 11:28:00,70.1,58.2,30.15,WNW,290,2.0,5.0,66,0.00,,,0.00,Wunderground v.1.15,2013-08-15 16:28:00,
2013-08-15 11:34:00,69.7,57.8,30.15,West,280,3.0,3.0,66,0.00,,,0.00,Wunderground v.1.15,2013-08-15 16:34:00,
2013-08-15 11:40:00,69.5,57.2,30.14,West,272,2.0,2.0,65,0.00,,,0.00,Wunderground v.1.15,2013-08-15 16:40:00,
2013-08-15 11:46:00,69.9,57.6,30.14,West,275,2.0,3.0,65,0.00,,,0.00,Wunderground v.1.15,2013-08-15 16:46:00,
2013-08-15 11:52:00,69.9,55.4,30.14,WNW,296,3.0,3.0,60,0.00,,,0.00,Wunderground v.1.15,2013-08-15 16:52:00,
2013-08-15 11:58:00,70.4,58.1,30.14,WNW,296,3.0,4.0,65,0.00,,,0.00,Wunderground v.1.15,2013-08-15 16:58:00,
2013-08-15 12:04:00,71.1,57.9,30.14,WNW,296,2.0,2.0,63,0.00,,,0.00,Wunderground v.1.15,2013-08-15 17:04:00,
2013-08-15 12:10:00,72.1,59.2,30.13,West,269,2.0,7.0,64,0.00,,,0.00,Wunderground v.1.15,2013-08-15 17:10:00,
2013-08-15 12:16:00,72.0,56.9,30.13,West,265,3.0,4.0,59,0.00,,,0.00,Wunderground v.1.15,2013-08-15 17:16:00,
2013-08-15 12:22:00,72.5,59.2,30.13,WSW,250,1.0,1.0,63,0.00,,,0.00,Wunderground v.1.15,2013-08-15 17:22:00,
2013-08-15 12:28:00,72.6,57.4,30.13,WNW,282,2.0,5.0,59,0.00,,,0.00,Wunderground v.1.15,2013-08-15 17:28:00,
2013-08-15 12:34:00,73.0,58.8,30.13,SW,220,3.0,3.0,61,0.00,,,0.00,Wunderground v.1.15,2013-08-15 17:34:00,
2013-08-15 12:40:00,72.9,55.8,30.13,West,276,3.0,4.0,55,0.00,,,0.00,Wunderground v.1.15,2013-08-15 17:40:00,
2013-08-15 12:46:00,72.2,57.5,30.13,WNW,283,3.0,5.0,60,0.00,,,0.00,Wunderground v.1.15,2013-08-15 17:46:00,
2013-08-15 12:54:00,72.5,58.7,30.13,WSW,244,2.0,2.0,62,0.00,,,0.00,Wunderground v.1.15,2013-08-15 17:54:00,
2013-08-15 13:00:00,72.9,57.3,30.12,WNW,292,2.0,5.0,58,0.00,,,0.00,Wunderground v.1.15,2013-08-15 18:00:00,
2013-08-15 13:06:00,73.2,56.6,30.12,West,268,3.0,5.0,56,0.00,,,0.00,Wunderground v.1.15,2013-08-15 18:06:00,
2013-08-15 13:12:00,73.4,56.2,30.12,West,267,2.0,5.0,55,0.00,,,0.00,Wunderground v.1.15,2013-08-15 18:12:00,
2013-08-15 13:22:00,73.0,54.9,30.12,WNW,292,3.0,7.0,53,0.00,,,0.00,Wunderground v.1.15,2013-08-15 18:22:00,
2013-08-15 13:28:00,72.2,55.1,30.11,WNW,289,3.0,7.0,55,0.00,,,0.00,Wunderground v.1.15,2013-08-15 18:28:00,
2013-08-15 13:34:00,72.6,55.5,30.11,WNW,289,1.0,3.0,55,0.00,,,0.00,Wunderground v.1.15,2013-08-15 18:34:00,
2013-08-15 13:40:00,72.5,54.4,30.11,WNW,295,2.0,4.0,53,0.00,,,0.00,Wunderground v.1.15,2013-08-15 18:40:00,
2013-08-15 13:46:00,72.2,54.6,30.11,WNW,296,3.0,4.0,54,0.00,,,0.00,Wunderground v.1.15,2013-08-15 18:46:00,
2013-08-15 13:52:00,72.1,55.5,30.11,WNW,292,2.0,5.0,56,0.00,,,0.00,Wunderground v.1.15,2013-08-15 18:52:00,
2013-08-15 13:58:00,72.2,55.6,30.11,WNW,292,3.0,5.0,56,0.00,,,0.00,Wunderground v.1.15,2013-08-15 18:58:00,
2013-08-15 14:04:00,72.8,57.2,30.11,WNW,292,1.0,1.0,58,0.00,,,0.00,Wunderground v.1.15,2013-08-15 19:04:00,
2013-08-15 14:10:00,73.5,55.3,30.11,WNW,292,0.0,2.0,53,0.00,,,0.00,Wunderground v.1.15,2013-08-15 19:10:00,
2013-08-15 14:16:00,73.0,56.9,30.10,WNW,301,2.0,4.0,57,0.00,,,0.00,Wunderground v.1.15,2013-08-15 19:16:00,
2013-08-15 14:22:00,72.8,56.2,30.10,WNW,293,3.0,3.0,56,0.00,,,0.00,Wunderground v.1.15,2013-08-15 19:22:00,
2013-08-15 14:28:00,73.0,54.9,30.10,WNW,298,2.0,3.0,53,0.00,,,0.00,Wunderground v.1.15,2013-08-15 19:28:00,
2013-08-15 14:34:00,73.4,56.2,30.10,WNW,295,1.0,2.0,55,0.00,,,0.00,Wunderground v.1.15,2013-08-15 19:34:00,
2013-08-15 14:40:00,73.9,55.2,30.10,WNW,292,2.0,2.0,52,0.00,,,0.00,Wunderground v.1.15,2013-08-15 19:40:00,
2013-08-15 14:46:00,74.2,55.4,30.10,WNW,292,1.0,3.0,52,0.00,,,0.00,Wunderground v.1.15,2013-08-15 19:46:00,
2013-08-15 14:52:00,74.1,54.3,30.10,WNW,291,1.0,2.0,50,0.00,,,0.00,Wunderground v.1.15,2013-08-15 19:52:00,
2013-08-15 14:58:00,74.6,56.9,30.10,WNW,297,1.0,3.0,54,0.00,,,0.00,Wunderground v.1.15,2013-08-15 19:58:00,
2013-08-15 15:04:00,74.7,55.4,30.10,WNW,297,1.0,1.0,51,0.00,,,0.00,Wunderground v.1.15,2013-08-15 20:04:00,
2013-08-15 15:12:00,74.7,56.9,30.09,WNW,299,1.0,3.0,54,0.00,,,0.00,Wunderground v.1.15,2013-08-15 20:12:00,
2013-08-15 15:18:00,74.1,57.4,30.09,NW,317,2.0,4.0,56,0.00,,,0.00,Wunderground v.1.15,2013-08-15 20:18:00,
2013-08-15 15:26:00,73.9,56.7,30.09,WNW,297,2.0,4.0,55,0.00,,,0.00,Wunderground v.1.15,2013-08-15 20:26:00,
2013-08-15 15:34:00,74.2,58.0,30.09,West,277,4.0,4.0,57,0.00,,,0.00,Wunderground v.1.15,2013-08-15 20:34:00,
2013-08-15 15:40:00,74.6,55.3,30.09,WNW,282,3.0,4.0,51,0.00,,,0.00,Wunderground v.1.15,2013-08-15 20:40:00,
2013-08-15 15:46:00,74.7,55.4,30.09,West,278,2.0,3.0,51,0.00,,,0.00,Wunderground v.1.15,2013-08-15 20:46:00,
2013-08-15 15:52:00,75.4,54.9,30.08,West,278,1.0,4.0,49,0.00,,,0.00,Wunderground v.1.15,2013-08-15 20:52:00,
2013-08-15 15:58:00,75.1,55.2,30.08,WNW,282,2.0,4.0,50,0.00,,,0.00,Wunderground v.1.15,2013-08-15 20:58:00,
2013-08-15 16:04:00,75.1,55.2,30.08,West,277,2.0,3.0,50,0.00,,,0.00,Wunderground v.1.15,2013-08-15 21:04:00,
2013-08-15 16:10:00,74.4,54.5,30.08,West,276,2.0,2.0,50,0.00,,,0.00,Wunderground v.1.15,2013-08-15 21:10:00,
2013-08-15 16:16:00,74.1,54.3,30.08,West,276,1.0,3.0,50,0.00,,,0.00,Wunderground v.1.15,2013-08-15 21:16:00,
2013-08-15 16:22:00,74.1,56.4,30.08,West,276,1.0,2.0,54,0.00,,,0.00,Wunderground v.1.15,2013-08-15 21:22:00,
2013-08-15 16:28:00,74.1,55.3,30.08,West,276,1.0,2.0,52,0.00,,,0.00,Wunderground v.1.15,2013-08-15 21:28:00,
2013-08-15 16:34:00,73.7,55.0,30.08,West,276,1.0,4.0,52,0.00,,,0.00,Wunderground v.1.15,2013-08-15 21:34:00,
2013-08-15 16:40:00,73.1,53.9,30.08,West,276,2.0,2.0,51,0.00,,,0.00,Wunderground v.1.15,2013-08-15 21:40:00,
2013-08-15 16:46:00,73.3,54.1,30.08,West,275,3.0,4.0,51,0.00,,,0.00,Wunderground v.1.15,2013-08-15 21:46:00,
2013-08-15 16:52:00,74.2,54.4,30.08,West,275,2.0,2.0,50,0.00,,,0.00,Wunderground v.1.15,2013-08-15 21:52:00,
2013-08-15 16:58:00,75.0,55.6,30.08,West,275,1.0,2.0,51,0.00,,,0.00,Wunderground v.1.15,2013-08-15 21:58:00,
2013-08-15 17:04:00,74.9,55.0,30.08,West,275,1.0,1.0,50,0.00,,,0.00,Wunderground v.1.15,2013-08-15 22:04:00,
2013-08-15 17:10:00,74.8,56.5,30.08,West,275,0.0,1.0,53,0.00,,,0.00,Wunderground v.1.15,2013-08-15 22:10:00,
2013-08-15 17:16:00,74.1,55.9,30.08,West,275,1.0,2.0,53,0.00,,,0.00,Wunderground v.1.15,2013-08-15 22:16:00,
2013-08-15 17:22:00,73.7,57.0,30.08,West,275,1.0,1.0,56,0.00,,,0.00,Wunderground v.1.15,2013-08-15 22:22:00,
2013-08-15 17:28:00,73.6,55.4,30.08,West,275,1.0,2.0,53,0.00,,,0.00,Wunderground v.1.15,2013-08-15 22:28:00,
2013-08-15 17:34:00,73.6,54.9,30.08,West,275,1.0,2.0,52,0.00,,,0.00,Wunderground v.1.15,2013-08-15 22:34:00,
2013-08-15 17:40:00,73.1,53.9,30.08,West,275,2.0,2.0,51,0.00,,,0.00,Wunderground v.1.15,2013-08-15 22:40:00,
2013-08-15 17:46:00,72.9,55.8,30.08,West,275,2.0,3.0,55,0.00,,,0.00,Wunderground v.1.15,2013-08-15 22:46:00,
2013-08-15 17:52:00,72.6,55.5,30.08,West,275,2.0,2.0,55,0.00,,,0.00,Wunderground v.1.15,2013-08-15 22:52:00,
2013-08-15 17:58:00,72.5,55.4,30.08,West,275,2.0,2.0,55,0.00,,,0.00,Wunderground v.1.15,2013-08-15 22:58:00,
2013-08-15 18:04:00,72.5,56.9,30.08,West,275,2.0,2.0,58,0.00,,,0.00,Wunderground v.1.15,2013-08-15 23:04:00,
2013-08-15 18:10:00,72.1,57.0,30.08,West,275,2.0,2.0,59,0.00,,,0.00,Wunderground v.1.15,2013-08-15 23:10:00,
2013-08-15 18:16:00,71.8,56.2,30.08,West,275,2.0,2.0,58,0.00,,,0.00,Wunderground v.1.15,2013-08-15 23:16:00,
2013-08-15 18:22:00,71.7,55.7,30.08,West,275,2.0,2.0,57,0.00,,,0.00,Wunderground v.1.15,2013-08-15 23:22:00,
2013-08-15 18:28:00,71.5,56.9,30.08,West,275,1.0,2.0,60,0.00,,,0.00,Wunderground v.1.15,2013-08-15 23:28:00,
2013-08-15 18:34:00,71.2,58.0,30.08,West,275,1.0,1.0,63,0.00,,,0.00,Wunderground v.1.15,2013-08-15 23:34:00,
2013-08-15 18:40:00,71.1,58.3,30.08,West,275,0.0,1.0,64,0.00,,,0.00,Wunderground v.1.15,2013-08-15 23:40:00,
2013-08-15 18:46:00,71.1,60.0,30.08,West,275,0.0,0.0,68,0.00,,,0.00,Wunderground v.1.15,2013-08-15 23:46:00,
2013-08-15 18:52:00,70.8,60.9,30.08,West,275,0.0,0.0,71,0.00,,,0.00,Wunderground v.1.15,2013-08-15 23:52:00,
2013-08-15 18:58:00,70.5,60.6,30.08,West,275,0.0,0.0,71,0.00,,,0.00,Wunderground v.1.15,2013-08-15 23:58:00,
2013-08-15 19:06:00,69.8,60.8,30.08,West,275,0.0,0.0,73,0.00,,,0.00,Wunderground v.1.15,2013-08-16 00:06:00,
2013-08-15 19:12:00,69.1,60.5,30.08,West,275,0.0,0.0,74,0.00,,,0.00,Wunderground v.1.15,2013-08-16 00:12:00,
2013-08-15 19:18:00,68.8,60.9,30.08,West,275,0.0,0.0,76,0.00,,,0.00,Wunderground v.1.15,2013-08-16 00:18:00,
2013-08-15 19:24:00,68.7,60.5,30.08,West,275,0.0,0.0,75,0.00,,,0.00,Wunderground v.1.15,2013-08-16 00:24:00,
2013-08-15 19:30:00,68.8,61.3,30.08,West,275,0.0,0.0,77,0.00,,,0.00,Wunderground v.1.15,2013-08-16 00:30:00,
2013-08-15 19:36:00,68.4,61.3,30.08,West,275,0.0,0.0,78,0.00,,,0.00,Wunderground v.1.15,2013-08-16 00:36:00,
2013-08-15 19:42:00,68.1,61.0,30.08,West,275,0.0,0.0,78,0.00,,,0.00,Wunderground v.1.15,2013-08-16 00:42:00,
2013-08-15 19:48:00,67.7,60.6,30.08,West,275,0.0,0.0,78,0.00,,,0.00,Wunderground v.1.15,2013-08-16 00:48:00,
2013-08-15 19:54:00,67.2,60.8,30.08,West,275,0.0,0.0,80,0.00,,,0.00,Wunderground v.1.15,2013-08-16 00:54:00,
2013-08-15 20:02:00,66.6,60.6,30.08,West,275,0.0,0.0,81,0.00,,,0.00,Wunderground v.1.15,2013-08-16 01:02:00,
2013-08-15 20:08:00,66.3,60.6,30.09,West,275,0.0,0.0,82,0.00,,,0.00,Wunderground v.1.15,2013-08-16 01:08:00,
2013-08-15 20:18:00,65.5,60.2,30.09,West,275,0.0,0.0,83,0.00,,,0.00,Wunderground v.1.15,2013-08-16 01:18:00,
2013-08-15 20:24:00,64.9,59.6,30.09,West,275,0.0,0.0,83,0.00,,,0.00,Wunderground v.1.15,2013-08-16 01:24:00,
2013-08-15 20:30:00,64.1,59.2,30.09,West,275,0.0,0.0,84,0.00,,,0.00,Wunderground v.1.15,2013-08-16 01:30:00,
2013-08-15 20:36:00,63.6,59.0,30.09,West,275,0.0,0.0,85,0.00,,,0.00,Wunderground v.1.15,2013-08-16 01:36:00,
2013-08-15 20:42:00,63.1,58.8,30.09,West,275,0.0,0.0,86,0.00,,,0.00,Wunderground v.1.15,2013-08-16 01:42:00,
2013-08-15 20:48:00,62.7,58.5,30.09,West,275,0.0,0.0,86,0.00,,,0.00,Wunderground v.1.15,2013-08-16 01:48:00,
2013-08-15 20:54:00,62.3,58.1,30.09,West,275,0.0,0.0,86,0.00,,,0.00,Wunderground v.1.15,2013-08-16 01:54:00,
2013-08-15 21:02:00,61.9,57.7,30.09,West,275,0.0,0.0,86,0.00,,,0.00,Wunderground v.1.15,2013-08-16 02:02:00,
2013-08-15 21:08:00,61.5,57.3,30.10,West,275,0.0,0.0,86,0.00,,,0.00,Wunderground v.1.15,2013-08-16 02:08:00,
2013-08-15 21:14:00,61.1,56.9,30.10,West,275,0.0,0.0,86,0.00,,,0.00,Wunderground v.1.15,2013-08-16 02:14:00,
2013-08-15 21:20:00,60.7,56.8,30.10,West,275,0.0,0.0,87,0.00,,,0.00,Wunderground v.1.15,2013-08-16 02:20:00,
2013-08-15 21:26:00,60.2,56.3,30.10,West,275,0.0,0.0,87,0.00,,,0.00,Wunderground v.1.15,2013-08-16 02:26:00,
2013-08-15 21:32:00,59.8,56.2,30.10,West,275,0.0,0.0,88,0.00,,,0.00,Wunderground v.1.15,2013-08-16 02:32:00,
2013-08-15 21:44:00,59.2,56.3,30.10,West,275,0.0,0.0,90,0.00,,,0.00,Wunderground v.1.15,2013-08-16 02:44:00,
2013-08-15 21:50:00,58.9,55.7,30.10,West,275,0.0,0.0,89,0.00,,,0.00,Wunderground v.1.15,2013-08-16 02:50:00,
2013-08-15 21:56:00,58.4,55.2,30.10,West,275,0.0,0.0,89,0.00,,,0.00,Wunderground v.1.15,2013-08-16 02:56:00,
2013-08-15 22:02:00,58.1,54.9,30.11,West,275,0.0,0.0,89,0.00,,,0.00,Wunderground v.1.15,2013-08-16 03:02:00,
2013-08-15 22:08:00,57.9,55.0,30.11,West,275,0.0,0.0,90,0.00,,,0.00,Wunderground v.1.15,2013-08-16 03:08:00,
2013-08-15 22:14:00,57.7,54.8,30.11,West,275,0.0,0.0,90,0.00,,,0.00,Wunderground v.1.15,2013-08-16 03:14:00,
2013-08-15 22:20:00,57.5,54.9,30.11,West,275,0.0,0.0,91,0.00,,,0.00,Wunderground v.1.15,2013-08-16 03:20:00,
2013-08-15 22:26:00,57.3,55.0,30.11,West,275,0.0,0.0,92,0.00,,,0.00,Wunderground v.1.15,2013-08-16 03:26:00,
2013-08-15 22:32:00,57.2,54.6,30.11,West,275,0.0,0.0,91,0.00,,,0.00,Wunderground v.1.15,2013-08-16 03:32:00,
2013-08-15 22:38:00,57.1,54.5,30.11,West,275,0.0,0.0,91,0.00,,,0.00,Wunderground v.1.15,2013-08-16 03:38:00,
2013-08-15 22:44:00,56.8,54.2,30.11,West,275,0.0,0.0,91,0.00,,,0.00,Wunderground v.1.15,2013-08-16 03:44:00,
2013-08-15 22:50:00,56.6,54.0,30.11,West,275,0.0,0.0,91,0.00,,,0.00,Wunderground v.1.15,2013-08-16 03:50:00,
2013-08-15 22:56:00,56.3,54.0,30.11,West,275,0.0,0.0,92,0.00,,,0.00,Wunderground v.1.15,2013-08-16 03:56:00,
2013-08-15 23:02:00,56.1,53.8,30.11,West,275,0.0,0.0,92,0.00,,,0.00,Wunderground v.1.15,2013-08-16 04:02:00,
2013-08-15 23:04:00,56.0,53.7,30.11,West,275,0.0,0.0,92,0.00,,,0.00,Wunderground v.1.15,2013-08-16 04:04:00,
2013-08-15 23:10:00,55.8,53.2,30.12,West,275,0.0,0.0,91,0.00,,,0.00,Wunderground v.1.15,2013-08-16 04:10:00,
2013-08-15 23:14:00,55.7,53.4,30.12,West,275,0.0,0.0,92,0.00,,,0.00,Wunderground v.1.15,2013-08-16 04:14:00,
2013-08-15 23:16:00,55.6,53.3,30.12,West,275,0.0,0.0,92,0.00,,,0.00,Wunderground v.1.15,2013-08-16 04:16:00,
2013-08-15 23:22:00,55.4,53.1,30.12,West,275,0.0,0.0,92,0.00,,,0.00,Wunderground v.1.15,2013-08-16 04:22:00,
2013-08-15 23:28:00,55.2,52.9,30.12,West,275,0.0,0.0,92,0.00,,,0.00,Wunderground v.1.15,2013-08-16 04:28:00,
2013-08-15 23:34:00,54.9,52.6,30.12,West,275,0.0,0.0,92,0.00,,,0.00,Wunderground v.1.15,2013-08-16 04:34:00,
2013-08-15 23:38:00,54.9,52.6,30.12,West,275,0.0,0.0,92,0.00,,,0.00,Wunderground v.1.15,2013-08-16 04:38:00,
2013-08-15 23:44:00,54.9,52.9,30.12,West,275,0.0,0.0,93,0.00,,,0.00,Wunderground v.1.15,2013-08-16 04:44:00,
2013-08-15 23:50:00,54.8,52.5,30.12,West,275,0.0,0.0,92,0.00,,,0.00,Wunderground v.1.15,2013-08-16 04:50:00,
2013-08-15 23:56:00,54.7,52.7,30.12,West,275,0.0,0.0,93,0.00,,,0.00,Wunderground v.1.15,2013-08-16 04:56:00,